createdAt,value
2022-12-09T00:01:44.913Z,15.40
2022-12-09T00:04:13.587Z,14.80
2022-12-09T00:06:41.894Z,14.60
2022-12-09T00:09:15.198Z,13.30
2022-12-09T00:11:44.238Z,15.10
2022-12-09T00:14:12.681Z,14.80
2022-12-09T00:16:40.930Z,14.60
2022-12-09T00:19:09.445Z,12.70
2022-12-09T00:21:37.647Z,12.70
2022-12-09T00:24:08.035Z,13.30
2022-12-09T00:26:36.194Z,13.00
2022-12-09T00:29:04.353Z,14.20
2022-12-09T00:31:35.092Z,14.30
2022-12-09T00:34:06.448Z,14.00
2022-12-09T00:36:35.225Z,13.00
2022-12-09T00:39:04.349Z,14.50
2022-12-09T00:41:32.563Z,14.40
2022-12-09T00:44:01.211Z,13.70
2022-12-09T00:46:30.318Z,14.10
2022-12-09T00:48:58.682Z,13.90
2022-12-09T00:51:27.107Z,14.00
2022-12-09T00:53:56.322Z,15.40
2022-12-09T00:56:28.520Z,14.70
2022-12-09T00:58:58.104Z,15.20
2022-12-09T01:01:28.436Z,14.40
2022-12-09T01:03:57.903Z,13.00
2022-12-09T01:06:27.542Z,14.30
2022-12-09T01:08:55.940Z,13.30
2022-12-09T01:11:27.954Z,13.60
2022-12-09T01:14:01.565Z,13.90
2022-12-09T01:16:32.985Z,15.30
2022-12-09T01:19:05.285Z,12.80
2022-12-09T01:21:34.967Z,14.00
2022-12-09T01:24:08.828Z,11.10
2022-12-09T01:26:38.634Z,11.80
2022-12-09T01:29:07.344Z,12.50
2022-12-09T01:31:35.887Z,12.80
2022-12-09T01:34:04.477Z,12.20
2022-12-09T01:36:32.702Z,12.00
2022-12-09T01:39:01.438Z,12.40
2022-12-09T01:41:29.591Z,13.00
2022-12-09T01:44:13.505Z,12.80
2022-12-09T01:46:42.036Z,14.50
2022-12-09T01:49:15.155Z,14.20
2022-12-09T01:51:49.692Z,13.90
2022-12-09T01:54:18.433Z,15.20
2022-12-09T01:56:46.976Z,13.80
2022-12-09T01:59:16.654Z,13.60
2022-12-09T02:01:48.532Z,12.90
2022-12-09T02:04:17.123Z,12.50
2022-12-09T02:06:45.486Z,11.50
2022-12-09T02:09:14.083Z,12.90
2022-12-09T02:12:24.054Z,11.80
2022-12-09T02:15:01.481Z,13.00
2022-12-09T02:17:36.013Z,12.60
2022-12-09T02:20:31.779Z,12.50
2022-12-09T02:23:06.180Z,12.60
2022-12-09T02:25:52.884Z,12.60
2022-12-09T02:28:30.380Z,12.50
2022-12-09T02:31:23.926Z,12.20
2022-12-09T02:34:23.457Z,11.90
2022-12-09T02:37:14.031Z,11.70
2022-12-09T02:40:05.009Z,13.10
2022-12-09T02:42:36.678Z,12.40
2022-12-09T02:45:07.730Z,12.60
2022-12-09T02:47:41.606Z,12.10
2022-12-09T02:50:13.481Z,11.60
2022-12-09T02:52:43.929Z,10.80
2022-12-09T02:55:15.809Z,10.90
2022-12-09T02:57:44.133Z,11.20
2022-12-09T03:00:15.840Z,11.30
2022-12-09T03:02:47.862Z,8.60
2022-12-09T03:05:19.075Z,10.40
2022-12-09T03:07:53.330Z,10.00
2022-12-09T03:10:29.444Z,11.00
2022-12-09T03:13:11.232Z,10.60
2022-12-09T03:15:44.329Z,9.30
2022-12-09T03:18:17.150Z,11.60
2022-12-09T03:20:48.123Z,10.30
2022-12-09T03:25:51.454Z,12.50
2022-12-09T03:28:42.625Z,13.70
2022-12-09T03:31:16.477Z,11.90
2022-12-09T03:33:54.919Z,12.00
2022-12-09T03:36:25.895Z,13.30
2022-12-09T03:38:55.624Z,12.90
2022-12-09T03:41:29.042Z,13.40
2022-12-09T03:44:23.878Z,13.00
2022-12-09T03:46:52.754Z,13.00
2022-12-09T03:49:21.645Z,12.40
2022-12-09T03:52:10.792Z,12.60
2022-12-09T03:54:45.949Z,11.50
2022-12-09T03:57:18.980Z,10.50
2022-12-09T03:59:54.083Z,11.10
2022-12-09T04:02:22.796Z,11.30
2022-12-09T04:04:51.308Z,11.50
2022-12-09T04:07:20.038Z,12.00
2022-12-09T04:09:48.377Z,10.60
2022-12-09T04:12:16.965Z,11.50
2022-12-09T04:14:45.302Z,12.50
2022-12-09T04:17:13.544Z,10.10
2022-12-09T04:19:41.969Z,11.00
2022-12-09T04:22:10.577Z,13.20
2022-12-09T04:24:38.974Z,11.70
2022-12-09T04:27:07.593Z,12.90
2022-12-09T04:29:35.943Z,14.40
2022-12-09T04:32:05.232Z,12.80
2022-12-09T04:34:34.212Z,10.80
2022-12-09T04:37:02.385Z,13.50
2022-12-09T04:39:31.382Z,12.40
2022-12-09T04:41:59.930Z,11.50
2022-12-09T04:44:28.060Z,13.20
2022-12-09T04:46:56.352Z,12.50
2022-12-09T04:49:25.009Z,12.30
2022-12-09T04:51:53.316Z,11.90
2022-12-09T04:54:21.740Z,13.00
2022-12-09T04:56:50.371Z,12.40
2022-12-09T04:59:18.698Z,12.70
2022-12-09T05:01:47.172Z,11.70
2022-12-09T05:04:16.328Z,12.50
2022-12-09T05:06:44.938Z,12.70
2022-12-09T05:09:14.452Z,12.90
2022-12-09T05:11:42.785Z,12.10
2022-12-09T05:14:11.320Z,11.90
2022-12-09T05:16:39.899Z,12.60
2022-12-09T05:19:09.165Z,12.20
2022-12-09T05:21:37.967Z,12.60
2022-12-09T05:24:06.928Z,12.50
2022-12-09T05:26:35.600Z,11.40
2022-12-09T05:29:04.320Z,12.80
2022-12-09T05:31:32.549Z,12.90
2022-12-09T05:34:01.357Z,11.30
2022-12-09T05:36:30.322Z,11.90
2022-12-09T05:38:58.682Z,12.70
2022-12-09T05:41:27.334Z,13.30
2022-12-09T05:43:56.617Z,12.40
2022-12-09T05:46:25.081Z,11.90
2022-12-09T05:48:54.123Z,13.70
2022-12-09T05:51:28.557Z,13.20
2022-12-09T05:54:00.354Z,13.90
2022-12-09T05:56:29.159Z,11.40
2022-12-09T05:58:57.815Z,15.50
2022-12-09T06:01:27.192Z,14.30
2022-12-09T06:03:56.547Z,14.00
2022-12-09T06:06:32.538Z,13.90
2022-12-09T06:09:02.706Z,13.10
2022-12-09T06:11:33.335Z,13.30
2022-12-09T06:14:02.182Z,13.60
2022-12-09T06:16:31.388Z,14.00
2022-12-09T06:19:00.029Z,15.10
2022-12-09T06:21:28.558Z,14.20
2022-12-09T06:23:56.904Z,13.00
2022-12-09T06:26:30.216Z,14.50
2022-12-09T06:28:59.931Z,11.90
2022-12-09T06:31:29.067Z,12.40
2022-12-09T06:33:59.127Z,12.20
2022-12-09T06:36:30.422Z,12.50
2022-12-09T06:39:05.833Z,14.30
2022-12-09T06:41:34.580Z,13.80
2022-12-09T06:44:03.539Z,15.10
2022-12-09T06:46:31.989Z,13.80
2022-12-09T06:49:00.930Z,14.00
2022-12-09T06:51:29.602Z,13.40
2022-12-09T06:53:58.100Z,14.40
2022-12-09T06:56:26.960Z,12.70
2022-12-09T06:58:55.470Z,12.90
2022-12-09T07:01:25.982Z,12.70
2022-12-09T07:03:57.118Z,13.70
2022-12-09T07:06:32.019Z,13.60
2022-12-09T07:09:03.313Z,14.20
2022-12-09T07:11:32.753Z,13.50
2022-12-09T07:14:01.548Z,12.90
2022-12-09T07:16:30.291Z,13.20
2022-12-09T07:18:59.354Z,12.10
2022-12-09T07:21:28.511Z,11.70
2022-12-09T07:24:00.201Z,11.90
2022-12-09T07:26:32.711Z,11.50
2022-12-09T07:29:07.283Z,11.40
2022-12-09T07:31:36.542Z,11.70
2022-12-09T07:34:05.598Z,12.30
2022-12-09T07:36:35.854Z,12.70
2022-12-09T07:39:06.915Z,12.80
2022-12-09T07:44:04.160Z,12.50
2022-12-09T07:46:33.133Z,13.00
2022-12-09T07:49:03.669Z,13.50
2022-12-09T07:51:32.638Z,13.00
2022-12-09T07:54:01.045Z,13.00
2022-12-09T07:56:29.359Z,12.40
2022-12-09T07:58:58.289Z,13.80
2022-12-09T08:01:29.350Z,13.70
2022-12-09T08:03:58.200Z,14.90
2022-12-09T08:06:28.917Z,14.60
2022-12-09T08:11:31.925Z,13.70
2022-12-09T08:14:08.905Z,13.40
2022-12-09T08:16:39.534Z,16.00
2022-12-09T08:19:08.990Z,14.60
2022-12-09T08:21:37.787Z,12.60
2022-12-09T08:24:08.159Z,11.70
2022-12-09T08:26:39.991Z,15.60
2022-12-09T08:29:11.123Z,15.10
2022-12-09T08:31:42.485Z,14.70
2022-12-09T08:34:11.418Z,14.80
2022-12-09T08:36:40.719Z,14.30
2022-12-09T08:39:09.465Z,13.00
2022-12-09T08:41:39.405Z,14.10
2022-12-09T08:44:09.819Z,14.30
2022-12-09T08:46:40.968Z,14.30
2022-12-09T08:51:38.954Z,12.10
2022-12-09T08:54:07.161Z,13.70
2022-12-09T08:56:36.081Z,14.30
2022-12-09T08:59:04.860Z,13.80
2022-12-09T09:03:54.056Z,14.50
2022-12-09T09:06:23.511Z,13.40
2022-12-09T09:08:52.382Z,12.20
2022-12-09T09:11:21.509Z,12.70
2022-12-09T09:13:51.898Z,12.40
2022-12-09T09:16:26.650Z,12.00
2022-12-09T09:18:55.433Z,12.80
2022-12-09T09:21:27.143Z,12.10
2022-12-09T09:23:56.394Z,12.00
2022-12-09T09:26:28.914Z,12.10
2022-12-09T09:28:58.108Z,12.30
2022-12-09T09:31:26.778Z,13.30
2022-12-09T09:33:55.825Z,12.40
2022-12-09T09:36:25.672Z,13.10
2022-12-09T09:38:55.974Z,13.20
2022-12-09T09:41:46.637Z,12.00
2022-12-09T09:44:32.370Z,12.60
2022-12-09T09:47:02.882Z,13.20
2022-12-09T09:49:37.497Z,12.60
2022-12-09T09:52:14.500Z,10.80
2022-12-09T09:54:43.037Z,12.60
2022-12-09T09:57:18.765Z,13.60
2022-12-09T10:00:11.360Z,14.30
2022-12-09T10:02:59.988Z,13.00
2022-12-09T10:05:43.435Z,14.00
2022-12-09T10:08:27.156Z,13.10
2022-12-09T10:11:22.097Z,14.50
2022-12-09T10:14:06.887Z,14.40
2022-12-09T10:16:48.697Z,14.00
2022-12-09T10:19:42.771Z,15.70
2022-12-09T10:22:27.310Z,15.00
2022-12-09T10:24:58.940Z,14.90
